createdAt,value
2023-07-12T00:02:01.344Z,67.04
2023-07-12T00:04:31.268Z,66.90
2023-07-12T00:07:01.885Z,67.05
2023-07-12T00:09:32.023Z,67.14
2023-07-12T00:12:02.239Z,67.03
2023-07-12T00:14:32.479Z,67.00
2023-07-12T00:17:02.718Z,67.09
2023-07-12T00:19:33.198Z,67.17
2023-07-12T00:22:03.653Z,66.85
2023-07-12T00:24:34.030Z,67.03
2023-07-12T00:27:04.446Z,67.06
2023-07-12T00:29:34.528Z,67.08
2023-07-12T00:32:04.618Z,67.35
2023-07-12T00:34:35.030Z,66.99
2023-07-12T00:37:06.098Z,66.93
2023-07-12T00:39:38.380Z,67.19
2023-07-12T00:42:15.912Z,67.07
2023-07-12T00:44:54.104Z,67.24
2023-07-12T00:47:25.322Z,67.21
2023-07-12T00:49:57.700Z,67.50
2023-07-12T00:52:28.710Z,67.72
2023-07-12T00:55:00.993Z,67.34
2023-07-12T00:57:36.149Z,67.44
2023-07-12T01:00:14.160Z,67.62
2023-07-12T01:02:49.444Z,67.50
2023-07-12T01:05:20.519Z,67.31
2023-07-12T01:07:50.809Z,67.72
2023-07-12T01:10:21.010Z,67.58
2023-07-12T01:12:53.290Z,67.43
2023-07-12T01:15:23.645Z,67.44
2023-07-12T01:17:54.649Z,67.58
2023-07-12T01:20:26.489Z,67.72
2023-07-12T01:22:59.480Z,67.47
2023-07-12T01:25:49.224Z,67.08
2023-07-12T01:28:21.012Z,67.14
2023-07-12T01:30:51.166Z,67.22
2023-07-12T01:33:22.250Z,67.19
2023-07-12T01:35:52.749Z,67.45
2023-07-12T01:38:22.917Z,67.31
2023-07-12T01:40:55.120Z,67.35
2023-07-12T01:43:26.036Z,67.63
2023-07-12T01:45:56.441Z,67.26
2023-07-12T01:48:28.764Z,67.10
2023-07-12T01:50:59.106Z,67.07
2023-07-12T01:53:30.473Z,66.84
2023-07-12T01:56:05.251Z,67.27
2023-07-12T01:58:37.381Z,67.06
2023-07-12T02:01:08.324Z,67.11
2023-07-12T02:03:39.430Z,67.03
2023-07-12T02:06:10.045Z,66.91
2023-07-12T02:08:40.216Z,66.93
2023-07-12T02:11:10.580Z,66.88
2023-07-12T02:13:41.930Z,66.83
2023-07-12T02:16:12.198Z,66.81
2023-07-12T02:18:42.475Z,66.85
2023-07-12T02:21:13.415Z,67.06
2023-07-12T02:23:43.608Z,67.40
2023-07-12T02:26:13.799Z,67.47
2023-07-12T02:28:43.964Z,67.00
2023-07-12T02:31:21.265Z,67.20
2023-07-12T02:33:53.225Z,67.34
2023-07-12T02:36:23.702Z,66.89
2023-07-12T02:38:54.152Z,67.06
2023-07-12T02:41:24.347Z,67.00
2023-07-12T02:43:54.505Z,67.32
2023-07-12T02:46:24.698Z,67.00
2023-07-12T02:48:54.863Z,67.20
2023-07-12T02:51:24.981Z,67.12
2023-07-12T02:53:55.216Z,67.20
2023-07-12T02:56:25.367Z,66.74
2023-07-12T02:58:55.506Z,66.68
2023-07-12T03:01:25.933Z,67.25
2023-07-12T03:03:59.376Z,67.00
2023-07-12T03:06:29.550Z,67.19
2023-07-12T03:08:59.649Z,67.46
2023-07-12T03:11:29.822Z,67.34
2023-07-12T03:14:00.175Z,67.22
2023-07-12T03:16:30.462Z,67.35
2023-07-12T03:19:00.794Z,67.46
2023-07-12T03:21:31.018Z,67.53
2023-07-12T03:24:01.131Z,67.27
2023-07-12T03:26:31.833Z,67.47
2023-07-12T03:29:02.292Z,67.11
2023-07-12T03:31:33.623Z,67.13
2023-07-12T03:34:03.767Z,67.28
2023-07-12T03:36:35.251Z,67.05
2023-07-12T03:39:05.397Z,67.16
2023-07-12T03:41:36.426Z,67.26
2023-07-12T03:44:06.820Z,67.09
2023-07-12T03:46:37.191Z,67.12
2023-07-12T03:49:07.364Z,67.10
2023-07-12T03:51:37.669Z,66.57
2023-07-12T03:54:07.768Z,66.44
2023-07-12T03:56:38.028Z,66.84
2023-07-12T03:59:08.428Z,66.63
2023-07-12T04:01:42.086Z,66.24
2023-07-12T04:04:13.240Z,66.08
2023-07-12T04:06:43.836Z,66.18
2023-07-12T04:09:14.650Z,65.21
2023-07-12T04:11:45.005Z,65.37
2023-07-12T04:14:15.182Z,66.12
2023-07-12T04:16:45.373Z,66.12
2023-07-12T04:19:16.237Z,66.04
2023-07-12T04:21:50.528Z,65.51
2023-07-12T04:24:20.677Z,66.04
2023-07-12T04:26:52.238Z,65.83
2023-07-12T04:29:22.495Z,65.97
2023-07-12T04:31:52.696Z,65.76
2023-07-12T04:34:37.313Z,65.77
2023-07-12T04:37:10.460Z,65.76
2023-07-12T04:39:40.589Z,65.43
2023-07-12T04:42:11.715Z,65.48
2023-07-12T04:44:41.893Z,65.56
2023-07-12T04:47:12.742Z,65.20
2023-07-12T04:49:42.978Z,65.14
2023-07-12T04:52:17.570Z,64.51
2023-07-12T04:54:49.356Z,64.40
2023-07-12T04:57:19.496Z,63.69
2023-07-12T04:59:49.594Z,64.15
2023-07-12T05:02:20.068Z,63.80
2023-07-12T05:04:53.402Z,63.89
2023-07-12T05:07:23.513Z,64.26
2023-07-12T05:09:53.718Z,63.88
2023-07-12T05:12:24.375Z,63.69
2023-07-12T05:14:54.780Z,63.92
2023-07-12T05:17:25.266Z,63.93
2023-07-12T05:19:58.720Z,63.59
2023-07-12T05:22:31.673Z,63.58
2023-07-12T05:25:03.886Z,63.72
2023-07-12T05:27:34.260Z,63.66
2023-07-12T05:30:04.373Z,63.50
2023-07-12T05:32:34.633Z,63.35
2023-07-12T05:35:04.893Z,63.47
2023-07-12T05:37:35.180Z,63.51
2023-07-12T05:40:07.512Z,63.63
2023-07-12T05:42:37.749Z,63.40
2023-07-12T05:45:08.309Z,63.19
2023-07-12T05:47:38.748Z,63.20
2023-07-12T05:50:10.520Z,63.28
2023-07-12T05:52:41.197Z,62.90
2023-07-12T05:55:14.775Z,62.91
2023-07-12T05:57:44.920Z,63.12
2023-07-12T06:00:16.684Z,62.92
2023-07-12T06:02:47.063Z,63.12
2023-07-12T06:05:17.351Z,62.63
2023-07-12T06:07:47.674Z,62.68
2023-07-12T06:10:19.177Z,62.75
2023-07-12T06:12:52.376Z,62.58
2023-07-12T06:15:23.073Z,62.24
2023-07-12T06:17:53.458Z,62.34
2023-07-12T06:20:24.106Z,62.83
2023-07-12T06:22:54.270Z,62.94
2023-07-12T06:25:24.554Z,62.57
2023-07-12T06:27:55.273Z,62.46
2023-07-12T06:30:26.138Z,62.37
2023-07-12T06:32:56.341Z,62.18
2023-07-12T06:35:26.963Z,62.12
2023-07-12T06:37:57.712Z,62.08
2023-07-12T06:40:27.992Z,62.26
2023-07-12T06:42:58.282Z,61.69
2023-07-12T06:45:29.640Z,61.68
2023-07-12T06:48:01.236Z,61.60
2023-07-12T06:50:31.508Z,61.92
2023-07-12T06:53:01.688Z,62.00
2023-07-12T06:55:32.238Z,61.97
2023-07-12T06:58:02.838Z,62.04
2023-07-12T07:00:32.989Z,61.67
2023-07-12T07:03:04.235Z,61.77
2023-07-12T07:05:36.002Z,61.89
2023-07-12T07:08:07.407Z,61.43
2023-07-12T07:10:38.335Z,61.34
2023-07-12T07:13:08.562Z,61.64
2023-07-12T07:15:39.318Z,61.28
2023-07-12T07:18:11.351Z,61.00
2023-07-12T07:20:46.977Z,61.19
2023-07-12T07:23:17.803Z,60.75
2023-07-12T07:25:48.043Z,61.02
2023-07-12T07:28:18.450Z,60.74
2023-07-12T07:30:48.598Z,60.79
2023-07-12T07:33:18.769Z,60.49
2023-07-12T07:35:48.959Z,60.44
2023-07-12T07:38:19.292Z,60.11
2023-07-12T07:40:49.449Z,60.48
2023-07-12T07:43:19.949Z,60.08
2023-07-12T07:45:52.749Z,60.53
2023-07-12T07:48:23.395Z,60.58
2023-07-12T07:50:53.617Z,60.57
2023-07-12T07:53:23.957Z,60.57
2023-07-12T07:55:55.021Z,60.44
2023-07-12T07:58:25.754Z,60.28
2023-07-12T08:00:56.408Z,60.49
2023-07-12T08:03:26.755Z,60.38
2023-07-12T08:06:03.568Z,60.45
2023-07-12T08:08:33.920Z,60.47
2023-07-12T08:11:05.908Z,60.51
2023-07-12T08:13:36.325Z,60.11
2023-07-12T08:16:06.618Z,59.90
2023-07-12T08:18:37.803Z,60.06
2023-07-12T08:21:08.639Z,59.97
2023-07-12T08:23:39.155Z,60.01
2023-07-12T08:26:10.510Z,59.84
2023-07-12T08:28:40.788Z,59.83
2023-07-12T08:31:11.340Z,60.41
2023-07-12T08:33:41.835Z,60.48
2023-07-12T08:36:12.057Z,60.30
2023-07-12T08:38:42.670Z,60.59
2023-07-12T08:41:19.593Z,60.26
2023-07-12T08:43:50.251Z,60.53
2023-07-12T08:46:28.778Z,60.36
2023-07-12T08:49:04.327Z,59.98
2023-07-12T08:51:38.891Z,60.31
2023-07-12T08:54:09.561Z,60.72
2023-07-12T08:56:40.025Z,60.37
2023-07-12T08:59:18.624Z,60.31
2023-07-12T09:01:52.808Z,60.37
2023-07-12T09:04:32.114Z,60.42
2023-07-12T09:07:06.227Z,60.53
2023-07-12T09:09:42.103Z,60.58
2023-07-12T09:12:35.317Z,60.78
2023-07-12T09:15:12.100Z,60.36
2023-07-12T09:17:46.342Z,60.48
2023-07-12T09:20:32.159Z,60.50
2023-07-12T09:23:04.147Z,60.41
2023-07-12T09:25:42.764Z,60.58
2023-07-12T09:28:17.331Z,60.99
2023-07-12T09:30:48.647Z,60.58
2023-07-12T09:33:31.947Z,60.85
2023-07-12T09:36:08.925Z,60.80
2023-07-12T09:38:41.602Z,60.65
2023-07-12T09:41:22.322Z,60.68
2023-07-12T09:44:00.844Z,61.29
2023-07-12T09:46:45.985Z,61.74
2023-07-12T09:49:24.850Z,61.42
2023-07-12T09:52:30.122Z,61.93
2023-07-12T09:55:08.091Z,62.14
2023-07-12T09:57:49.484Z,62.18
2023-07-12T10:00:51.636Z,62.06
2023-07-12T10:03:31.346Z,62.62
2023-07-12T10:06:15.983Z,62.58
2023-07-12T10:08:57.135Z,62.99
2023-07-12T10:11:42.340Z,62.85
2023-07-12T10:14:18.030Z,62.97
2023-07-12T10:16:57.176Z,62.84
2023-07-12T10:19:41.760Z,62.92
2023-07-12T10:22:31.100Z,63.09
2023-07-12T10:25:04.134Z,63.24
2023-07-12T10:27:40.027Z,63.04
2023-07-12T10:30:24.795Z,63.29
2023-07-12T10:33:02.344Z,63.27
2023-07-12T10:35:52.998Z,63.12
2023-07-12T10:38:26.839Z,63.03
2023-07-12T10:41:25.334Z,63.45
2023-07-12T10:44:10.623Z,63.31
2023-07-12T10:46:46.610Z,63.24
2023-07-12T10:49:24.260Z,63.41
2023-07-12T10:52:30.344Z,63.41
2023-07-12T10:55:06.759Z,63.41
2023-07-12T10:57:49.908Z,63.41
2023-07-12T11:00:21.309Z,63.48
2023-07-12T11:03:15.740Z,63.73
2023-07-12T11:06:02.517Z,63.60
2023-07-12T11:08:35.869Z,63.73
2023-07-12T11:11:25.948Z,63.47
2023-07-12T11:14:12.469Z,63.40
2023-07-12T11:17:16.406Z,63.72
2023-07-12T11:19:49.823Z,63.94
2023-07-12T11:22:55.314Z,64.04
2023-07-12T11:25:47.572Z,63.76
2023-07-12T11:28:26.677Z,63.87
2023-07-12T11:31:21.956Z,63.83
2023-07-12T11:34:09.442Z,63.67
2023-07-12T11:36:40.330Z,63.51
2023-07-12T11:39:27.224Z,63.69
2023-07-12T11:42:02.704Z,63.53
2023-07-12T11:44:32.892Z,63.61
2023-07-12T11:47:03.175Z,63.52
2023-07-12T11:49:34.793Z,63.53
2023-07-12T11:52:15.513Z,63.96
2023-07-12T11:54:46.614Z,63.48
2023-07-12T11:57:17.300Z,63.79
2023-07-12T11:59:50.876Z,63.79
2023-07-12T12:02:24.571Z,63.96
2023-07-12T12:05:02.923Z,63.84
2023-07-12T12:07:42.188Z,64.17
2023-07-12T12:10:29.446Z,63.98
2023-07-12T12:12:59.897Z,63.76
2023-07-12T12:15:33.901Z,63.92
2023-07-12T12:18:20.941Z,64.25
2023-07-12T12:21:00.391Z,64.02
2023-07-12T12:23:42.828Z,64.05
2023-07-12T12:26:26.190Z,64.19
2023-07-12T13:05:01.751Z,67.68
2023-07-12T13:08:45.022Z,67.36
2023-07-12T13:16:22.426Z,67.25
2023-07-12T13:19:10.576Z,66.99
2023-07-12T13:21:27.118Z,66.79
2023-07-12T13:23:58.414Z,67.05
2023-07-12T13:26:28.859Z,66.86
2023-07-12T13:28:59.093Z,66.37
2023-07-12T13:31:29.452Z,66.32
2023-07-12T13:34:11.401Z,66.43
2023-07-12T13:36:48.530Z,66.19
2023-07-12T13:47:02.244Z,65.96
2023-07-12T13:49:32.602Z,65.90
2023-07-12T13:52:02.787Z,65.79
2023-07-12T13:54:32.991Z,65.92
2023-07-12T13:57:08.738Z,66.18
2023-07-12T13:59:40.188Z,66.15
2023-07-12T14:10:26.458Z,66.31
2023-07-12T14:12:57.018Z,66.52
2023-07-12T14:16:18.623Z,66.49
2023-07-12T14:18:49.149Z,66.41
2023-07-12T14:21:22.327Z,66.85
2023-07-12T14:23:54.571Z,66.83
2023-07-12T14:26:29.173Z,66.84
2023-07-12T14:29:01.469Z,66.88
2023-07-12T14:31:34.821Z,66.81
2023-07-12T14:34:06.220Z,67.06
2023-07-12T14:36:37.336Z,67.07
2023-07-12T14:39:07.264Z,67.08
2023-07-12T14:41:37.548Z,67.02
2023-07-12T14:44:19.023Z,67.19
2023-07-12T14:46:49.838Z,67.05
2023-07-12T14:49:20.157Z,67.28
2023-07-12T14:52:03.898Z,67.70
2023-07-12T14:54:49.015Z,68.02
2023-07-12T14:57:59.802Z,68.06
2023-07-12T15:00:19.542Z,68.01
2023-07-12T15:03:00.795Z,68.12
2023-07-12T15:05:31.921Z,68.28
2023-07-12T15:08:02.278Z,68.02
2023-07-12T15:10:34.205Z,68.64
2023-07-12T15:13:06.791Z,68.54
2023-07-12T15:15:37.113Z,68.93
2023-07-12T15:18:07.333Z,69.14
2023-07-12T15:20:40.190Z,69.54
2023-07-12T15:23:37.308Z,70.15
2023-07-12T15:26:07.927Z,70.24
2023-07-12T15:28:42.263Z,70.78
2023-07-12T15:31:38.064Z,70.24
2023-07-12T15:34:09.447Z,69.56
2023-07-12T15:36:39.777Z,69.21
2023-07-12T15:39:10.027Z,69.36
2023-07-12T15:41:40.622Z,69.05
2023-07-12T15:44:13.123Z,69.00
2023-07-12T15:46:43.342Z,68.91
2023-07-12T15:49:14.057Z,68.65
2023-07-12T15:51:51.532Z,68.68
2023-07-12T15:54:34.424Z,68.93
2023-07-12T15:57:04.824Z,68.92
2023-07-12T15:59:37.121Z,68.91
2023-07-12T16:02:16.855Z,68.97
2023-07-12T16:04:51.558Z,69.13
2023-07-12T16:07:21.792Z,69.00
2023-07-12T16:09:52.271Z,69.11
2023-07-12T16:12:28.673Z,69.10
2023-07-12T16:14:59.038Z,69.03
2023-07-12T16:17:29.250Z,69.37
2023-07-12T16:19:59.445Z,69.09
2023-07-12T16:22:32.524Z,69.15
2023-07-12T16:25:02.798Z,68.97
2023-07-12T16:27:32.954Z,69.19
2023-07-12T16:30:03.961Z,69.31
2023-07-12T16:32:34.242Z,69.10
2023-07-12T16:35:04.438Z,69.13
2023-07-12T16:37:34.613Z,68.89
2023-07-12T16:40:09.537Z,68.66
2023-07-12T16:42:41.830Z,68.80
2023-07-12T16:45:28.239Z,68.95
2023-07-12T16:47:58.438Z,68.85
2023-07-12T16:50:28.844Z,68.68
2023-07-12T16:52:59.076Z,68.78
2023-07-12T16:55:31.195Z,68.53
2023-07-12T16:58:01.380Z,68.70
2023-07-12T17:00:32.962Z,68.78
2023-07-12T17:03:03.688Z,68.96
2023-07-12T17:05:34.050Z,69.20
2023-07-12T17:08:04.389Z,68.88
2023-07-12T17:10:34.853Z,69.12
2023-07-12T17:13:05.245Z,69.03
2023-07-12T17:15:35.486Z,68.94
2023-07-12T17:18:06.278Z,69.03
2023-07-12T17:20:38.909Z,68.88
2023-07-12T17:23:22.973Z,68.89
2023-07-12T17:25:56.194Z,69.05
2023-07-12T17:28:31.290Z,69.04
2023-07-12T17:31:09.963Z,69.03
2023-07-12T17:33:40.771Z,69.08
2023-07-12T17:36:15.068Z,69.15
2023-07-12T17:38:47.646Z,69.00
2023-07-12T17:41:24.564Z,69.04
2023-07-12T17:43:55.904Z,69.13
2023-07-12T17:46:26.181Z,69.11
2023-07-12T17:48:56.619Z,69.25
2023-07-12T17:51:31.548Z,69.13
2023-07-12T17:54:01.672Z,69.12
2023-07-12T17:56:31.853Z,68.95
2023-07-12T17:59:01.969Z,69.05
2023-07-12T18:01:34.848Z,68.98
2023-07-12T18:04:06.839Z,68.68
2023-07-12T18:06:38.479Z,68.83
2023-07-12T18:09:09.385Z,68.88
2023-07-12T18:11:45.256Z,68.83
2023-07-12T18:14:22.436Z,68.90
2023-07-12T18:16:54.849Z,69.08
2023-07-12T18:19:25.066Z,69.12
2023-07-12T18:21:55.500Z,68.93
2023-07-12T18:24:28.629Z,69.43
2023-07-12T18:26:58.865Z,69.46
2023-07-12T18:29:29.061Z,69.44
2023-07-12T18:32:00.371Z,69.51
2023-07-12T18:34:32.722Z,69.16
2023-07-12T18:37:03.056Z,69.34
2023-07-12T18:39:34.556Z,69.37
2023-07-12T18:42:04.729Z,69.58
2023-07-12T18:44:34.920Z,69.06
2023-07-12T18:47:05.126Z,69.10
2023-07-12T18:49:35.704Z,68.84
2023-07-12T18:52:07.024Z,68.90
2023-07-12T18:54:36.873Z,68.64
2023-07-12T18:57:07.322Z,68.68
2023-07-12T18:59:37.456Z,68.95
2023-07-12T19:02:20.183Z,68.95
2023-07-12T19:04:53.468Z,69.32
2023-07-12T19:07:30.793Z,68.87
2023-07-12T19:10:01.254Z,69.05
2023-07-12T19:12:31.481Z,68.90
2023-07-12T19:15:05.062Z,69.10
2023-07-12T19:17:35.626Z,69.26
2023-07-12T19:20:06.914Z,68.99
2023-07-12T19:22:36.782Z,69.08
2023-07-12T19:25:07.632Z,69.11
2023-07-12T19:27:43.190Z,69.42
2023-07-12T19:30:19.488Z,69.42
2023-07-12T19:32:49.761Z,69.53
2023-07-12T19:35:29.025Z,69.40
2023-07-12T19:37:59.254Z,69.18
2023-07-12T19:40:29.673Z,69.39
2023-07-12T19:43:00.434Z,69.68
2023-07-12T19:45:31.806Z,69.61
2023-07-12T19:48:03.463Z,69.83
2023-07-12T19:50:34.960Z,69.76
2023-07-12T19:53:26.115Z,69.70
2023-07-12T19:55:57.585Z,69.56
2023-07-12T19:58:29.765Z,69.52
2023-07-12T20:01:00.059Z,69.79
2023-07-12T20:03:31.189Z,69.67
2023-07-12T20:06:01.411Z,69.57
2023-07-12T20:08:32.139Z,69.41
2023-07-12T20:11:02.460Z,69.54
2023-07-12T20:13:38.684Z,69.41
2023-07-12T20:16:09.506Z,69.62
2023-07-12T20:18:39.985Z,69.49
2023-07-12T20:21:10.092Z,69.74
2023-07-12T20:23:40.886Z,69.87
2023-07-12T20:26:13.059Z,69.51
2023-07-12T20:28:44.153Z,69.91
2023-07-12T20:31:17.419Z,69.97
2023-07-12T20:33:49.793Z,69.60
2023-07-12T20:36:20.044Z,69.39
2023-07-12T20:38:50.306Z,69.50
2023-07-12T20:41:20.484Z,69.51
2023-07-12T20:43:51.307Z,69.20
2023-07-12T20:46:21.652Z,69.23
2023-07-12T20:48:51.781Z,69.37
2023-07-12T20:51:22.490Z,69.75
2023-07-12T20:53:54.300Z,69.52
2023-07-12T20:56:24.698Z,69.48
2023-07-12T20:58:57.698Z,69.34
2023-07-12T21:01:30.793Z,69.62
2023-07-12T21:04:00.899Z,69.72
2023-07-12T21:06:31.172Z,69.61
2023-07-12T21:09:01.640Z,69.29
2023-07-12T21:11:33.583Z,69.47
2023-07-12T21:14:03.819Z,69.31
2023-07-12T21:16:34.397Z,70.06
2023-07-12T21:19:04.531Z,69.71
2023-07-12T21:21:34.667Z,69.26
2023-07-12T21:24:04.901Z,68.60
2023-07-12T21:26:35.149Z,68.10
2023-07-12T21:29:05.732Z,68.00
2023-07-12T21:31:37.024Z,67.19
2023-07-12T21:34:08.779Z,67.16
2023-07-12T21:36:39.394Z,66.81
2023-07-12T21:39:09.557Z,66.68
2023-07-12T21:41:39.923Z,65.89
2023-07-12T21:44:10.477Z,65.95
2023-07-12T21:46:40.631Z,65.67
2023-07-12T21:49:10.882Z,65.63
2023-07-12T21:51:41.020Z,65.38
2023-07-12T21:54:11.308Z,64.86
2023-07-12T21:56:41.742Z,65.06
2023-07-12T21:59:12.207Z,64.40
2023-07-12T22:01:42.451Z,63.93
2023-07-12T22:04:12.921Z,63.94
2023-07-12T22:06:45.895Z,63.65
2023-07-12T22:09:16.610Z,63.03
2023-07-12T22:11:47.297Z,62.97
2023-07-12T22:14:17.496Z,62.89
2023-07-12T22:16:48.522Z,62.19
2023-07-12T22:19:18.751Z,62.77
2023-07-12T22:21:49.937Z,62.21
2023-07-12T22:24:19.639Z,62.65
2023-07-12T22:26:49.862Z,62.48
2023-07-12T22:29:19.956Z,62.58
2023-07-12T22:31:50.435Z,62.95
2023-07-12T22:34:20.680Z,62.13
2023-07-12T22:36:51.903Z,62.38
2023-07-12T22:39:23.187Z,62.05
2023-07-12T22:41:56.323Z,62.35
2023-07-12T22:45:50.383Z,62.13
2023-07-12T22:48:20.725Z,61.57
2023-07-12T22:50:51.060Z,61.25
2023-07-12T22:53:21.468Z,61.51
2023-07-12T22:56:01.880Z,61.57
2023-07-12T22:58:32.911Z,61.51
2023-07-12T23:01:04.199Z,61.93
2023-07-12T23:03:34.001Z,61.70
2023-07-12T23:06:06.298Z,61.58
2023-07-12T23:08:37.158Z,61.81
2023-07-12T23:11:07.322Z,61.47
2023-07-12T23:13:37.929Z,61.75
2023-07-12T23:16:19.252Z,62.03
2023-07-12T23:18:50.263Z,61.73
2023-07-12T23:21:22.739Z,61.41
2023-07-12T23:23:54.526Z,61.44
2023-07-12T23:26:25.008Z,61.39
2023-07-12T23:29:02.246Z,61.55
2023-07-12T23:31:32.403Z,61.69
2023-07-12T23:34:03.237Z,61.29
2023-07-12T23:36:35.504Z,61.54
2023-07-12T23:39:08.050Z,61.55
2023-07-12T23:41:38.296Z,61.26
2023-07-12T23:44:08.636Z,61.74
2023-07-12T23:46:38.867Z,61.19
2023-07-12T23:49:08.988Z,61.44
2023-07-12T23:51:40.827Z,61.41
2023-07-12T23:54:13.462Z,61.23
2023-07-12T23:56:43.573Z,61.36
2023-07-12T23:59:14.203Z,61.40
